Time;durP1;ratioP1;P1;durP2;ratioP2;P2;SDS_P1;SDS_P2;PMS_P1;PMS_P2;Temp;Humidity;BMP_temperature;BMP_pressure;BME280_temperature;BME280_humidity;BME280_pressure;Samples;Min_cycle;Max_cycle;Signal;HPM_P1;HPM_P2
2022/06/01 00:00:34;;;;;;;3.37;3.13;;;11.60;99.90;;;;;;4991036;28;20179;-74
2022/06/01 00:03:00;;;;;;;3.63;3.23;;;11.50;99.90;;;;;;4991567;28;20998;-76
2022/06/01 00:05:26;;;;;;;3.20;2.83;;;11.50;99.90;;;;;;4991887;28;20172;-76
2022/06/01 00:07:52;;;;;;;4.13;3.43;;;11.40;99.90;;;;;;4991773;28;20178;-75
2022/06/01 00:10:18;;;;;;;3.37;3.17;;;11.30;99.90;;;;;;4991564;28;20971;-76
2022/06/01 00:12:44;;;;;;;3.07;2.87;;;11.20;99.90;;;;;;4991456;28;20202;-76
2022/06/01 00:15:11;;;;;;;3.10;2.90;;;11.10;99.90;;;;;;4991838;28;20415;-76
2022/06/01 00:17:37;;;;;;;5.50;3.50;;;11.10;99.90;;;;;;4992425;28;20618;-76
2022/06/01 00:20:03;;;;;;;5.83;3.80;;;11.10;99.90;;;;;;4995273;28;20410;-74
2022/06/01 00:22:29;;;;;;;3.83;3.13;;;11.10;99.90;;;;;;4995745;28;20538;-76
2022/06/01 00:24:54;;;;;;;4.07;3.67;;;11.00;99.90;;;;;;4995259;28;20538;-76
2022/06/01 00:27:20;;;;;;;3.53;3.23;;;11.00;99.90;;;;;;4994940;28;20183;-76
2022/06/01 00:29:46;;;;;;;4.80;3.47;;;11.00;99.90;;;;;;4996195;28;20214;-76
2022/06/01 00:32:14;;;;;;;3.43;3.13;;;11.00;99.90;;;;;;4994541;28;20577;-76
2022/06/01 00:34:40;;;;;;;2.97;2.80;;;10.90;99.90;;;;;;4995452;28;20167;-76
2022/06/01 00:37:08;;;;;;;3.03;2.77;;;10.80;99.90;;;;;;4994833;28;20406;-76
2022/06/01 00:39:34;;;;;;;3.63;2.60;;;10.80;99.90;;;;;;4994884;28;20437;-76
2022/06/01 00:42:18;;;;;;;5.83;3.27;;;10.70;99.90;;;;;;4994890;28;20794;-75
2022/06/01 00:44:45;;;;;;;3.10;2.90;;;10.70;99.90;;;;;;4995052;28;20850;-76
2022/06/01 00:47:11;;;;;;;8.70;3.50;;;10.70;99.90;;;;;;4994780;28;20795;-76
2022/06/01 00:49:41;;;;;;;3.30;3.00;;;10.70;99.90;;;;;;4993398;28;21003;-75
2022/06/01 00:52:07;;;;;;;3.77;3.10;;;10.70;99.90;;;;;;4994284;28;20445;-75
2022/06/01 00:54:33;;;;;;;3.00;2.80;;;10.60;99.90;;;;;;4993073;28;20426;-75
2022/06/01 00:57:03;;;;;;;3.00;2.80;;;10.60;99.90;;;;;;4994545;28;20172;-76
2022/06/01 00:59:33;;;;;;;4.60;3.63;;;10.60;99.90;;;;;;4994377;28;20208;-76
2022/06/01 02:32:38;;;;;;;3.87;3.57;;;9.60;99.90;;;;;;5303705;22;20651;-72
2022/06/01 02:35:09;;;;;;;8.97;4.10;;;9.60;99.90;;;;;;5011546;28;20754;-72
2022/06/01 02:37:39;;;;;;;3.67;3.30;;;9.60;99.90;;;;;;5009500;28;20436;-72
2022/06/01 02:40:08;;;;;;;3.70;3.50;;;9.60;99.90;;;;;;5013367;28;20421;-72
2022/06/01 02:42:34;;;;;;;5.70;3.83;;;9.50;99.90;;;;;;5028190;28;20453;-72
2022/06/01 02:45:10;;;;;;;4.30;3.90;;;9.50;99.90;;;;;;5013054;28;20400;-72
2022/06/01 02:47:40;;;;;;;6.53;5.20;;;9.40;99.90;;;;;;5012860;28;20180;-72
2022/06/01 02:50:09;;;;;;;3.87;3.67;;;9.30;99.90;;;;;;5012840;28;20462;-72
2022/06/01 02:52:35;;;;;;;4.00;3.63;;;9.30;99.90;;;;;;5012516;28;20859;-72
2022/06/01 02:55:05;;;;;;;4.30;3.90;;;9.30;99.90;;;;;;5012406;28;20912;-72
2022/06/01 02:57:32;;;;;;;6.60;3.63;;;9.30;99.90;;;;;;5012617;28;20510;-72
2022/06/01 02:59:58;;;;;;;4.47;4.07;;;9.30;99.90;;;;;;5027925;28;20487;-72
2022/06/01 03:02:25;;;;;;;4.20;3.90;;;9.20;99.90;;;;;;5012723;28;20433;-72
2022/06/01 03:04:51;;;;;;;4.00;3.70;;;9.10;99.90;;;;;;5013092;28;20174;-72
2022/06/01 03:07:16;;;;;;;4.23;3.83;;;9.10;99.90;;;;;;5012677;28;20427;-72
2022/06/01 03:09:42;;;;;;;5.40;3.67;;;9.10;99.90;;;;;;5012818;28;20205;-72
2022/06/01 03:12:09;;;;;;;4.50;4.10;;;9.10;99.90;;;;;;5012183;28;20263;-72
2022/06/01 03:14:38;;;;;;;4.13;3.73;;;9.00;99.90;;;;;;5013126;28;20788;-72
2022/06/01 03:17:06;;;;;;;5.30;4.37;;;9.00;99.90;;;;;;5012707;28;20404;-72
2022/06/01 03:19:31;;;;;;;4.63;4.33;;;9.00;99.90;;;;;;5013040;28;20477;-71
2022/06/01 03:21:57;;;;;;;3.80;3.60;;;8.90;99.90;;;;;;5013040;28;20983;-72
2022/06/01 03:24:22;;;;;;;4.07;3.67;;;8.90;99.90;;;;;;5012849;28;20215;-72
2022/06/01 03:26:48;;;;;;;4.63;4.20;;;8.90;99.90;;;;;;5012601;28;20211;-72
2022/06/01 03:29:14;;;;;;;4.80;4.40;;;8.90;99.90;;;;;;5012456;28;20252;-72
2022/06/01 03:31:40;;;;;;;4.30;3.90;;;8.90;99.90;;;;;;5013189;28;20218;-71
2022/06/01 03:34:05;;;;;;;4.30;3.90;;;9.00;99.90;;;;;;5013414;28;20413;-72
2022/06/01 03:36:31;;;;;;;4.70;3.97;;;8.90;99.90;;;;;;5013791;28;20173;-72
2022/06/01 03:38:57;;;;;;;6.07;3.70;;;8.90;99.90;;;;;;5013062;28;20180;-72
2022/06/01 03:41:27;;;;;;;4.13;3.73;;;8.90;99.90;;;;;;5012969;28;20196;-72
2022/06/01 03:46:37;;;;;;;5.53;5.03;;;8.90;99.90;;;;;;5012260;28;20450;-73
2022/06/01 03:49:03;;;;;;;4.57;4.13;;;8.90;99.90;;;;;;5011509;28;20476;-72
2022/06/01 03:51:29;;;;;;;4.10;3.80;;;8.90;99.90;;;;;;5011248;28;20202;-72
2022/06/01 03:53:54;;;;;;;4.53;3.73;;;9.00;99.90;;;;;;5014132;28;20173;-72
2022/06/01 03:56:22;;;;;;;5.47;4.30;;;9.00;99.90;;;;;;5015263;28;20677;-72
2022/06/01 03:58:51;;;;;;;5.10;3.93;;;9.00;99.90;;;;;;5015185;28;20220;-72
2022/06/01 04:01:18;;;;;;;4.40;4.00;;;9.00;99.90;;;;;;5014919;28;20854;-72
2022/06/01 04:03:45;;;;;;;9.83;4.20;;;9.10;99.90;;;;;;5015140;28;20447;-72
2022/06/01 04:06:10;;;;;;;5.93;4.33;;;9.10;99.90;;;;;;5015275;28;20428;-72
2022/06/01 04:08:36;;;;;;;8.17;4.30;;;9.10;99.90;;;;;;5015120;28;20463;-73
2022/06/01 04:11:01;;;;;;;4.30;3.90;;;9.20;99.90;;;;;;5004800;28;20278;-73
2022/06/01 04:13:28;;;;;;;4.43;4.03;;;9.20;99.90;;;;;;4983856;28;20280;-73
2022/06/01 04:15:54;;;;;;;3.93;3.60;;;9.30;99.90;;;;;;4995886;28;20189;-73
2022/06/01 04:18:20;;;;;;;4.00;3.60;;;9.40;99.90;;;;;;4996031;28;20980;-73
2022/06/01 04:20:48;;;;;;;4.20;3.53;;;9.50;99.90;;;;;;4995057;28;20448;-75
2022/06/01 04:23:14;;;;;;;7.43;4.40;;;9.60;99.90;;;;;;4995286;28;20409;-73
2022/06/01 04:25:40;;;;;;;8.97;4.80;;;9.70;99.90;;;;;;4995424;28;20417;-71
2022/06/01 04:28:06;;;;;;;6.53;4.93;;;9.70;99.90;;;;;;4995140;28;20407;-72
2022/06/01 04:30:31;;;;;;;4.70;4.20;;;9.80;99.90;;;;;;4994855;28;20198;-72
2022/06/01 04:32:57;;;;;;;4.90;3.80;;;9.90;99.90;;;;;;4995047;28;20517;-72
2022/06/01 04:35:25;;;;;;;4.10;3.70;;;10.00;99.90;;;;;;4994855;28;20182;-72
2022/06/01 04:37:50;;;;;;;7.53;3.97;;;10.00;99.90;;;;;;4994842;28;20460;-72
2022/06/01 04:40:18;;;;;;;9.33;4.10;;;10.10;99.90;;;;;;4994848;28;20409;-72
2022/06/01 04:42:44;;;;;;;4.37;3.97;;;10.20;99.90;;;;;;4994683;28;20266;-72
2022/06/01 04:45:12;;;;;;;5.10;4.63;;;10.20;99.90;;;;;;4995008;28;20426;-72
2022/06/01 04:47:38;;;;;;;5.80;5.30;;;10.40;99.90;;;;;;4993470;28;20493;-72
2022/06/01 04:50:05;;;;;;;4.27;3.97;;;10.50;99.90;;;;;;4994702;28;20473;-72
2022/06/01 04:52:31;;;;;;;4.30;4.00;;;10.60;99.90;;;;;;4994297;28;20462;-72
2022/06/01 04:54:56;;;;;;;8.97;4.43;;;10.80;99.90;;;;;;4994678;28;20421;-72
2022/06/01 04:57:22;;;;;;;5.10;4.70;;;10.90;99.90;;;;;;4991743;28;20183;-73
2022/06/01 04:59:47;;;;;;;4.83;4.40;;;11.10;99.90;;;;;;4984081;28;20180;-72
2022/06/01 05:02:14;;;;;;;8.40;3.80;;;12.30;99.90;;;;;;4984407;28;20587;-72
2022/06/01 05:04:40;;;;;;;3.10;2.73;;;14.80;99.90;;;;;;4992573;28;20187;-72
2022/06/01 05:07:06;;;;;;;3.07;2.87;;;17.50;99.90;;;;;;4993399;28;20771;-72
2022/06/01 05:09:31;;;;;;;3.00;2.70;;;19.80;99.90;;;;;;4993526;28;20461;-73
2022/06/01 05:11:58;;;;;;;3.63;2.93;;;21.10;99.90;;;;;;4978443;28;20196;-73
2022/06/01 05:14:24;;;;;;;4.63;2.90;;;22.40;99.90;;;;;;4974572;28;20176;-75
2022/06/01 05:16:50;;;;;;;2.90;2.70;;;23.50;99.90;;;;;;4975241;28;20415;-75
2022/06/01 05:19:15;;;;;;;2.13;2.03;;;23.80;99.90;;;;;;4980745;28;20735;-75
2022/06/01 05:21:41;;;;;;;3.47;1.97;;;23.50;99.90;;;;;;4979900;28;20215;-75
2022/06/01 05:24:07;;;;;;;5.47;2.50;;;23.90;99.90;;;;;;4987854;28;20189;-75
2022/06/01 05:26:33;;;;;;;2.90;2.30;;;24.50;99.90;;;;;;4985689;28;20264;-75
2022/06/01 05:28:59;;;;;;;1.87;1.77;;;24.60;99.90;;;;;;4991269;28;20211;-75
2022/06/01 05:31:24;;;;;;;3.67;1.90;;;24.80;99.90;;;;;;4994198;28;20450;-75
2022/06/01 05:33:50;;;;;;;2.50;2.30;;;25.20;99.90;;;;;;4993949;28;20171;-75
2022/06/01 05:36:17;;;;;;;4.30;2.13;;;25.30;99.90;;;;;;4993926;28;20168;-74
2022/06/01 05:38:46;;;;;;;1.97;1.87;;;25.20;99.90;;;;;;4994241;28;20565;-74
2022/06/01 05:41:12;;;;;;;2.53;1.83;;;25.10;99.90;;;;;;4993531;28;20525;-74
2022/06/01 05:43:38;;;;;;;2.77;2.00;;;24.70;99.90;;;;;;4993908;28;20418;-74
2022/06/01 05:46:03;;;;;;;3.97;1.90;;;24.40;99.90;;;;;;4994129;28;20423;-75
2022/06/01 05:48:29;;;;;;;2.33;2.13;;;23.90;99.90;;;;;;4993828;28;20213;-75
2022/06/01 05:50:55;;;;;;;2.83;1.73;;;23.60;99.90;;;;;;4992525;28;20192;-75
2022/06/01 05:53:20;;;;;;;2.80;2.20;;;23.30;99.90;;;;;;4993654;28;20597;-74
2022/06/01 05:55:46;;;;;;;2.50;1.87;;;23.10;99.90;;;;;;4994311;28;20215;-74
2022/06/01 05:58:18;;;;;;;1.67;1.57;;;22.80;99.90;;;;;;4992822;28;20651;-74
2022/06/01 06:00:45;;;;;;;3.33;2.10;;;22.60;99.90;;;;;;4993856;28;20191;-74
2022/06/01 06:03:11;;;;;;;3.03;2.20;;;22.40;99.90;;;;;;4994027;28;20407;-75
2022/06/01 06:08:22;;;;;;;2.80;2.00;;;21.90;99.90;;;;;;4993878;28;20437;-75
2022/06/01 06:10:48;;;;;;;3.33;1.80;;;22.10;99.90;;;;;;4995690;28;20431;-75
2022/06/01 06:13:14;;;;;;;4.70;1.87;;;22.00;99.90;;;;;;4997897;28;20418;-74
2022/06/01 06:15:40;;;;;;;3.87;1.90;;;22.00;99.90;;;;;;4996159;28;20498;-75
2022/06/01 06:18:06;;;;;;;2.20;2.00;;;22.10;99.90;;;;;;4993972;28;21013;-74
2022/06/01 06:20:33;;;;;;;2.20;1.80;;;22.30;99.90;;;;;;4993197;28;20202;-76
2022/06/01 06:22:58;;;;;;;1.97;1.87;;;22.90;99.90;;;;;;4993456;28;20407;-75
2022/06/01 06:25:24;;;;;;;5.73;1.93;;;23.20;99.90;;;;;;4995324;28;20415;-74
2022/06/01 06:27:49;;;;;;;2.30;2.00;;;23.40;99.90;;;;;;4993437;28;20261;-75
2022/06/01 06:30:18;;;;;;;1.50;1.40;;;23.50;99.90;;;;;;4992077;28;20199;-73
2022/06/01 06:32:44;;;;;;;2.23;1.80;;;23.40;99.90;;;;;;4992034;28;20697;-74
2022/06/01 06:35:10;;;;;;;7.70;2.40;;;23.40;99.90;;;;;;4992571;28;20419;-74
2022/06/01 06:37:35;;;;;;;6.23;2.00;;;23.50;99.90;;;;;;4992799;28;20418;-74
2022/06/01 06:40:01;;;;;;;3.07;2.23;;;23.30;99.90;;;;;;4991131;28;20184;-75
2022/06/01 06:42:26;;;;;;;3.13;2.00;;;23.80;99.90;;;;;;4991955;28;20203;-74
2022/06/01 06:44:52;;;;;;;1.73;1.63;;;24.20;99.90;;;;;;4992262;28;20213;-75
2022/06/01 06:47:17;;;;;;;4.67;2.00;;;23.90;99.90;;;;;;4992533;28;20222;-74
2022/06/01 06:49:43;;;;;;;2.50;1.63;;;24.10;99.90;;;;;;4991206;28;20654;-74
2022/06/01 06:52:08;;;;;;;1.80;1.70;;;24.30;99.90;;;;;;4992253;28;20222;-77
2022/06/01 06:54:34;;;;;;;2.13;1.40;;;24.50;99.90;;;;;;4992569;28;20167;-77
2022/06/01 06:57:00;;;;;;;3.07;2.10;;;24.30;99.90;;;;;;4992562;28;20178;-77
2022/06/01 06:59:26;;;;;;;3.20;1.53;;;24.00;99.90;;;;;;4992296;28;20287;-77
2022/06/01 07:01:52;;;;;;;2.73;1.83;;;24.00;99.90;;;;;;4992379;28;20219;-75
2022/06/01 07:04:18;;;;;;;3.10;1.83;;;24.00;99.90;;;;;;4992290;28;20443;-78
2022/06/01 07:06:43;;;;;;;1.60;1.50;;;24.10;99.90;;;;;;4992398;28;20175;-78
2022/06/01 07:09:09;;;;;;;5.90;1.50;;;24.30;99.90;;;;;;4991404;28;20290;-78
2022/06/01 07:11:37;;;;;;;6.17;1.47;;;24.50;99.90;;;;;;4991568;28;20218;-78
2022/06/01 07:14:03;;;;;;;2.77;2.33;;;24.60;99.90;;;;;;4990634;28;20270;-78
2022/06/01 07:16:32;;;;;;;2.03;1.80;;;24.90;99.90;;;;;;4992249;28;20489;-78
2022/06/01 07:18:59;;;;;;;4.03;1.70;;;25.30;99.90;;;;;;4991154;28;20530;-78
2022/06/01 07:21:25;;;;;;;2.00;1.90;;;25.10;99.90;;;;;;4991926;28;21022;-78
2022/06/01 07:23:51;;;;;;;5.03;1.60;;;25.00;99.90;;;;;;4992565;28;20444;-78
2022/06/01 07:26:26;;;;;;;4.60;1.63;;;25.20;99.90;;;;;;4990594;28;20939;-78
2022/06/01 07:28:52;;;;;;;2.33;1.60;;;25.60;99.90;;;;;;4992373;28;20463;-78
2022/06/01 07:31:19;;;;;;;1.67;1.47;;;26.20;99.90;;;;;;4991891;28;20525;-78
2022/06/01 07:33:44;;;;;;;1.57;1.47;;;26.00;99.90;;;;;;4992675;28;20407;-79
2022/06/01 07:36:13;;;;;;;3.83;1.53;;;25.90;99.90;;;;;;4992006;28;20410;-78
2022/06/01 07:44:09;;;;;;;4.83;1.20;;;26.30;99.90;;;;;;4993176;28;20417;-79
2022/06/01 07:46:35;;;;;;;3.90;1.37;;;26.60;99.90;;;;;;4992343;28;20926;-79
2022/06/01 07:49:01;;;;;;;4.30;2.30;;;26.50;99.90;;;;;;4992649;28;20454;-78
2022/06/01 07:51:33;;;;;;;1.50;1.40;;;26.70;99.90;;;;;;4992220;28;20822;-78
2022/06/01 07:53:58;;;;;;;3.83;2.10;;;26.90;99.90;;;;;;4992800;28;20201;-79
2022/06/01 07:56:25;;;;;;;7.27;1.80;;;27.10;99.90;;;;;;4993128;28;20794;-78
2022/06/01 07:58:50;;;;;;;1.33;1.23;;;27.00;99.90;;;;;;4992651;28;20254;-79
2022/06/01 08:01:20;;;;;;;2.33;1.33;;;26.70;99.90;;;;;;4992076;28;20493;-78
2022/06/01 08:03:46;;;;;;;1.00;0.90;;;26.30;99.90;;;;;;4991773;28;20202;-78
2022/06/01 08:06:12;;;;;;;1.03;0.90;;;26.50;98.80;;;;;;4993096;28;20414;-79
2022/06/01 08:08:37;;;;;;;1.97;1.13;;;26.60;96.80;;;;;;4993733;28;20469;-79
2022/06/01 08:11:03;;;;;;;1.80;0.90;;;26.60;94.80;;;;;;4994040;28;20278;-79
2022/06/01 08:13:29;;;;;;;1.00;1.00;;;26.90;93.30;;;;;;4993676;28;20199;-79
2022/06/01 08:15:55;;;;;;;1.57;0.80;;;27.20;94.60;;;;;;4993636;28;20203;-79
2022/06/01 08:18:23;;;;;;;2.67;0.90;;;27.10;93.20;;;;;;4993818;28;20250;-79
2022/06/01 08:20:49;;;;;;;1.83;1.30;;;27.10;91.30;;;;;;4994301;28;20440;-79
2022/06/01 08:23:15;;;;;;;1.80;0.90;;;27.30;92.80;;;;;;4994076;28;20473;-79
2022/06/01 08:25:41;;;;;;;2.07;1.03;;;27.30;90.80;;;;;;4994043;28;20402;-78
2022/06/01 08:28:08;;;;;;;1.10;0.87;;;27.50;91.50;;;;;;4994838;28;20183;-79
2022/06/01 08:30:35;;;;;;;2.40;1.13;;;27.60;91.50;;;;;;4994373;28;20497;-79
2022/06/01 08:33:01;;;;;;;2.60;1.30;;;27.90;91.30;;;;;;4994510;28;20434;-79
2022/06/01 08:35:36;;;;;;;0.93;0.80;;;28.10;91.80;;;;;;4992681;28;20486;-78
2022/06/01 08:38:03;;;;;;;2.50;0.97;;;28.00;91.60;;;;;;4994093;28;20167;-78
2022/06/01 08:40:33;;;;;;;1.40;1.30;;;28.50;92.50;;;;;;4997295;28;20423;-79
2022/06/01 08:43:05;;;;;;;1.97;1.10;;;28.10;92.00;;;;;;4996933;28;20883;-79
2022/06/01 08:45:31;;;;;;;1.70;1.60;;;27.50;92.20;;;;;;4996797;28;20418;-79
2022/06/01 08:47:56;;;;;;;3.00;1.20;;;27.60;92.20;;;;;;4995864;28;20419;-77
2022/06/01 08:50:49;;;;;;;3.00;1.60;;;26.50;93.70;;;;;;4995455;28;20840;-78
2022/06/01 08:53:14;;;;;;;3.53;1.60;;;25.40;97.30;;;;;;4992979;28;20227;-77
2022/06/01 08:55:59;;;;;;;4.70;2.47;;;25.00;98.00;;;;;;4994825;28;20419;-77
2022/06/01 08:58:57;;;;;;;7.03;2.70;;;24.30;99.70;;;;;;4994778;28;20183;-77
2022/06/01 09:01:48;;;;;;;8.27;2.50;;;24.00;99.90;;;;;;4994541;28;20525;-75
2022/06/01 09:04:42;;;;;;;7.40;2.40;;;23.70;99.90;;;;;;4994815;28;20418;-76
2022/06/01 09:07:10;;;;;;;6.27;2.60;;;24.00;99.90;;;;;;5014840;23;20881;-76
2022/06/01 09:09:56;;;;;;;2.60;1.90;;;25.20;99.90;;;;;;4994487;28;20431;-76
2022/06/01 09:12:22;;;;;;;4.43;1.70;;;25.70;99.90;;;;;;4975892;28;20437;-76
2022/06/01 09:14:53;;;;;;;6.43;2.40;;;25.40;99.90;;;;;;4974957;28;20411;-76
2022/06/01 09:17:19;;;;;;;10.77;2.50;;;25.30;98.80;;;;;;4973297;28;20180;-76
2022/06/01 09:22:38;;;;;;;2.90;1.77;;;26.30;99.90;;;;;;4974488;28;20466;-76
2022/06/01 09:25:07;;;;;;;2.87;1.67;;;26.80;98.30;;;;;;4974891;28;20414;-77
2022/06/01 09:27:39;;;;;;;6.97;2.20;;;27.60;98.00;;;;;;4974226;28;20459;-77
2022/06/01 09:30:33;;;;;;;3.03;1.77;;;28.10;96.30;;;;;;4974917;28;20451;-77
2022/06/01 09:33:14;;;;;;;3.43;1.90;;;28.60;95.90;;;;;;4974533;28;20911;-77
2022/06/01 09:35:53;;;;;;;1.90;1.73;;;28.60;95.10;;;;;;4973528;28;20428;-77
2022/06/01 09:38:47;;;;;;;1.90;1.40;;;28.60;95.40;;;;;;4974623;28;20498;-77
2022/06/01 09:41:19;;;;;;;3.43;1.40;;;28.30;95.10;;;;;;4974240;28;20435;-77
2022/06/01 09:44:08;;;;;;;3.17;1.47;;;28.70;92.90;;;;;;4997020;23;20875;-76
2022/06/01 09:46:41;;;;;;;1.53;0.97;;;28.80;92.80;;;;;;5005602;28;20410;-76
2022/06/01 09:49:29;;;;;;;2.93;1.10;;;28.90;92.90;;;;;;5013303;28;20425;-76
2022/06/01 09:52:08;;;;;;;2.10;1.07;;;29.30;92.30;;;;;;5002401;28;20517;-78
2022/06/01 09:54:37;;;;;;;3.00;1.27;;;29.70;87.20;;;;;;4993522;28;20407;-77
2022/06/01 09:57:24;;;;;;;1.17;1.00;;;28.70;90.10;;;;;;4993954;28;20413;-77
2022/06/01 10:08:18;;;;;;;1.70;1.10;;;27.60;90.80;;;;;;4994544;28;20957;-77
2022/06/01 10:11:00;;;;;;;2.40;1.20;;;27.60;87.40;;;;;;4993194;28;20410;-78
2022/06/01 10:13:31;;;;;;;2.97;0.80;;;27.70;88.90;;;;;;4991991;28;20850;-78
2022/06/01 10:16:01;;;;;;;12.63;1.20;;;27.80;85.70;;;;;;4993447;28;20414;-77
2022/06/01 10:18:30;;;;;;;1.47;0.80;;;27.50;82.40;;;;;;4993286;28;20415;-76
2022/06/01 10:21:15;;;;;;;0.80;0.80;;;27.00;83.20;;;;;;4993054;28;20439;-76
2022/06/01 10:24:17;;;;;;;1.10;1.00;;;27.20;82.40;;;;;;4992140;28;20928;-76
2022/06/01 10:26:50;;;;;;;2.03;0.90;;;28.00;83.30;;;;;;4961765;28;20450;-77
2022/06/01 10:29:19;;;;;;;1.27;0.70;;;28.50;85.00;;;;;;4993127;28;20493;-75
2022/06/01 10:31:50;;;;;;;2.10;0.90;;;28.90;81.00;;;;;;4992901;28;20434;-77
2022/06/01 10:34:18;;;;;;;4.80;0.80;;;28.90;77.30;;;;;;4993007;28;20854;-75
2022/06/01 10:36:59;;;;;;;0.70;0.70;;;29.10;78.20;;;;;;4993016;28;20418;-76
2022/06/01 10:39:59;;;;;;;1.73;0.90;;;29.20;76.80;;;;;;4992741;28;20489;-76
2022/06/01 10:45:29;;;;;;;1.30;0.90;;;29.20;73.00;;;;;;4992819;28;20885;-76
2022/06/01 10:48:11;;;;;;;1.33;0.97;;;29.00;74.50;;;;;;4992640;28;21019;-76
2022/06/01 10:50:52;;;;;;;1.53;0.90;;;29.20;75.10;;;;;;4992427;28;20410;-74
2022/06/01 10:53:21;;;;;;;1.33;0.70;;;29.50;73.50;;;;;;4992637;28;20877;-76
2022/06/01 10:55:48;;;;;;;0.73;0.70;;;29.30;71.40;;;;;;4992894;28;20526;-77
2022/06/01 10:58:21;;;;;;;3.70;0.90;;;28.70;69.70;;;;;;4992553;28;20422;-76
2022/06/01 11:01:09;;;;;;;2.00;1.00;;;28.40;71.20;;;;;;4992633;28;20426;-76
2022/06/01 11:03:59;;;;;;;1.43;0.90;;;28.20;71.40;;;;;;4992125;28;20423;-77
2022/06/01 11:06:53;;;;;;;4.07;0.90;;;27.30;68.50;;;;;;4992803;28;20410;-76
2022/06/01 11:09:32;;;;;;;1.00;0.90;;;26.70;73.30;;;;;;4992544;28;20569;-76
2022/06/01 11:12:29;;;;;;;1.17;1.07;;;26.20;73.80;;;;;;4992688;28;20434;-76
2022/06/01 11:15:01;;;;;;;1.17;0.90;;;25.80;76.00;;;;;;4992763;28;20407;-76
2022/06/01 11:17:30;;;;;;;4.40;0.73;;;25.80;77.50;;;;;;4992481;28;20843;-77
2022/06/01 11:20:14;;;;;;;4.30;0.90;;;26.00;76.30;;;;;;4992470;28;20855;-77
2022/06/01 11:23:04;;;;;;;1.53;1.30;;;26.00;75.60;;;;;;4992529;28;20443;-77
2022/06/01 11:26:07;;;;;;;2.10;1.10;;;26.50;76.50;;;;;;4992336;28;21038;-77
2022/06/01 11:28:51;;;;;;;0.80;0.80;;;27.00;76.70;;;;;;4992268;28;20428;-76
2022/06/01 11:31:25;;;;;;;1.57;0.80;;;27.00;74.10;;;;;;4991815;28;20426;-77
2022/06/01 11:34:03;;;;;;;2.00;1.00;;;26.60;71.80;;;;;;4992270;28;20763;-77
2022/06/01 11:36:48;;;;;;;1.43;0.87;;;26.20;72.90;;;;;;4992202;28;20779;-77
2022/06/01 11:39:31;;;;;;;4.60;1.13;;;26.20;74.30;;;;;;4991907;28;20889;-77
2022/06/01 11:42:03;;;;;;;0.80;0.80;;;26.50;74.40;;;;;;4991968;28;20488;-77
2022/06/01 11:44:35;;;;;;;5.07;1.00;;;26.20;73.90;;;;;;4991847;28;20437;-76
2022/06/01 11:47:12;;;;;;;1.27;0.93;;;26.30;77.70;;;;;;4992368;28;20414;-77
2022/06/01 11:49:41;;;;;;;1.73;0.97;;;26.50;73.60;;;;;;4991998;28;20785;-77
2022/06/01 11:52:25;;;;;;;3.73;1.20;;;26.20;73.30;;;;;;4991777;28;20462;-77
2022/06/01 11:55:05;;;;;;;1.20;0.90;;;26.20;77.10;;;;;;4991980;28;20438;-76
2022/06/01 11:57:51;;;;;;;3.70;1.10;;;26.00;74.40;;;;;;4991837;28;20783;-77
2022/06/01 12:00:39;;;;;;;1.23;1.00;;;25.60;75.40;;;;;;4990438;28;21008;-76
2022/06/01 12:03:19;;;;;;;2.70;1.00;;;25.40;77.00;;;;;;4991894;28;20421;-77
2022/06/01 12:06:06;;;;;;;0.97;0.70;;;26.00;77.70;;;;;;4991950;28;20477;-76
2022/06/01 12:08:44;;;;;;;3.17;1.30;;;25.90;75.80;;;;;;4991817;28;20846;-77
2022/06/01 12:11:35;;;;;;;1.33;0.87;;;25.50;75.90;;;;;;4990274;28;20565;-76
2022/06/01 12:14:00;;;;;;;3.13;1.00;;;25.60;75.50;;;;;;4993232;28;20398;-77
2022/06/01 12:16:29;;;;;;;4.67;1.30;;;25.40;74.70;;;;;;4995706;28;20936;-76
2022/06/01 12:19:09;;;;;;;0.80;0.80;;;25.40;77.90;;;;;;4995511;28;20203;-76
2022/06/01 12:22:00;;;;;;;1.33;0.80;;;25.10;74.90;;;;;;4995259;28;20796;-76
2022/06/01 12:30:16;;;;;;;1.50;1.07;;;24.90;79.50;;;;;;4976116;28;20935;-72
2022/06/01 12:33:00;;;;;;;4.93;1.00;;;25.10;82.90;;;;;;4975641;28;20435;-72
2022/06/01 12:36:00;;;;;;;1.13;1.03;;;25.30;80.20;;;;;;4985951;28;21077;-71
2022/06/01 12:38:34;;;;;;;1.30;0.90;;;25.40;81.70;;;;;;4980545;28;20547;-71
2022/06/01 12:41:19;;;;;;;3.40;1.00;;;25.40;80.90;;;;;;4993606;28;20552;-71
2022/06/01 12:43:48;;;;;;;1.20;1.20;;;25.10;81.80;;;;;;4993887;28;20825;-72
2022/06/01 12:46:27;;;;;;;11.83;1.53;;;25.00;82.10;;;;;;4992097;28;20472;-71
2022/06/01 12:49:21;;;;;;;1.60;0.90;;;24.80;82.80;;;;;;4993574;28;20915;-72
2022/06/01 12:51:47;;;;;;;4.13;1.23;;;24.60;83.60;;;;;;4993396;28;20438;-72
2022/06/01 12:54:24;;;;;;;1.60;1.20;;;24.30;83.60;;;;;;4993552;28;20449;-73
2022/06/01 12:56:50;;;;;;;3.50;1.67;;;24.30;84.30;;;;;;4993750;28;20269;-72
2022/06/01 12:59:15;;;;;;;2.03;1.77;;;24.30;84.90;;;;;;4993528;28;20896;-72
2022/06/01 13:01:41;;;;;;;1.30;1.20;;;24.60;86.60;;;;;;4993303;28;20226;-71
2022/06/01 13:04:06;;;;;;;4.70;1.10;;;24.90;86.40;;;;;;4993788;28;20286;-71
2022/06/01 13:06:39;;;;;;;2.90;1.27;;;25.10;87.60;;;;;;4994427;28;20179;-73
2022/06/01 13:09:10;;;;;;;2.50;1.00;;;25.00;87.00;;;;;;4994267;28;20176;-72
2022/06/01 13:11:36;;;;;;;3.03;1.20;;;24.80;87.90;;;;;;4993791;28;20454;-71
2022/06/01 13:14:11;;;;;;;3.37;0.93;;;24.60;89.40;;;;;;4994258;28;20836;-72
2022/06/01 13:16:42;;;;;;;5.10;1.43;;;24.50;87.80;;;;;;4994789;28;20917;-72
2022/06/01 13:19:20;;;;;;;3.80;1.33;;;24.80;89.30;;;;;;4994199;28;20458;-71
2022/06/01 13:21:58;;;;;;;4.20;1.30;;;25.20;88.20;;;;;;4993914;28;20440;-72
2022/06/01 13:24:25;;;;;;;3.53;3.23;;;25.40;89.70;;;;;;4993384;28;20410;-72
2022/06/01 13:26:54;;;;;;;3.20;2.90;;;25.50;88.40;;;;;;4994070;28;20415;-71
2022/06/01 13:29:35;;;;;;;3.10;1.60;;;25.40;87.80;;;;;;4993804;28;20794;-71
2022/06/01 13:32:06;;;;;;;4.80;1.47;;;25.20;86.70;;;;;;4993786;28;20924;-71
2022/06/01 13:34:46;;;;;;;1.63;1.43;;;25.00;87.30;;;;;;4993846;28;20425;-73
2022/06/01 13:37:21;;;;;;;3.47;1.40;;;24.80;87.50;;;;;;4993928;28;20785;-74
2022/06/01 13:40:03;;;;;;;1.23;1.13;;;24.60;86.90;;;;;;4993113;28;20462;-74
2022/06/01 13:42:36;;;;;;;3.07;1.30;;;24.60;89.40;;;;;;4993508;28;20448;-74
2022/06/01 13:45:15;;;;;;;2.80;1.70;;;24.40;90.00;;;;;;4993985;28;20442;-74
2022/06/01 13:48:00;;;;;;;1.50;1.40;;;24.60;90.80;;;;;;4993741;28;20414;-74
2022/06/01 13:50:28;;;;;;;1.53;1.43;;;24.70;89.40;;;;;;4993480;28;20414;-74
2022/06/01 13:52:54;;;;;;;3.50;1.30;;;24.70;88.70;;;;;;4993465;28;20458;-75
2022/06/01 13:55:28;;;;;;;5.33;1.30;;;24.60;89.70;;;;;;4994096;28;20919;-75
2022/06/01 13:58:10;;;;;;;1.97;1.40;;;24.60;90.40;;;;;;4993616;28;20282;-75
2022/06/01 14:00:42;;;;;;;2.33;1.63;;;24.80;90.20;;;;;;4993330;28;20462;-74
2022/06/01 14:03:20;;;;;;;1.60;1.40;;;24.80;88.60;;;;;;4993555;28;20734;-75
2022/06/01 14:06:07;;;;;;;2.03;1.67;;;24.70;88.90;;;;;;4993706;28;20409;-74
2022/06/01 14:08:38;;;;;;;4.07;1.13;;;24.90;88.30;;;;;;4993300;28;20786;-74
2022/06/01 14:11:06;;;;;;;1.10;1.00;;;24.80;88.80;;;;;;4993081;28;20437;-74
2022/06/01 14:13:41;;;;;;;3.27;2.27;;;25.00;88.30;;;;;;4993297;28;20421;-74
2022/06/01 14:16:13;;;;;;;1.90;1.17;;;25.10;89.00;;;;;;4993206;28;20465;-75
2022/06/01 14:18:38;;;;;;;3.90;1.27;;;25.00;88.10;;;;;;4992981;28;20476;-75
2022/06/01 14:21:04;;;;;;;1.83;1.73;;;24.90;87.10;;;;;;4992886;28;20437;-74
2022/06/01 14:23:30;;;;;;;2.83;1.47;;;24.70;88.30;;;;;;4992788;28;20181;-74
2022/06/01 14:28:42;;;;;;;1.70;1.60;;;24.70;88.30;;;;;;4992612;28;20182;-74
2022/06/01 14:31:22;;;;;;;3.27;1.23;;;24.70;87.50;;;;;;4992342;28;20946;-74
2022/06/01 14:33:48;;;;;;;1.50;1.30;;;24.70;87.40;;;;;;4992227;28;20981;-75
2022/06/01 14:36:13;;;;;;;1.63;1.53;;;24.50;88.80;;;;;;4990767;28;20410;-74
2022/06/01 14:38:39;;;;;;;3.37;1.30;;;24.50;90.00;;;;;;4992738;28;20679;-74
2022/06/01 14:41:09;;;;;;;1.17;1.17;;;24.30;88.90;;;;;;4991406;28;20222;-74
2022/06/01 14:43:39;;;;;;;1.97;1.20;;;24.20;90.70;;;;;;4992577;28;20431;-74
2022/06/01 14:46:06;;;;;;;2.30;1.27;;;24.20;90.10;;;;;;4992797;28;20446;-74
2022/06/01 14:48:32;;;;;;;4.70;1.23;;;24.00;90.10;;;;;;4992379;28;20446;-74
2022/06/01 14:51:11;;;;;;;1.30;1.10;;;23.90;90.30;;;;;;4992351;28;20431;-75
2022/06/01 14:53:39;;;;;;;2.60;1.57;;;23.80;90.40;;;;;;4992567;28;20410;-71
2022/06/01 14:56:06;;;;;;;5.57;1.67;;;23.90;90.90;;;;;;4992310;28;20986;-71
2022/06/01 14:58:32;;;;;;;2.27;1.10;;;23.90;91.10;;;;;;4990819;28;20410;-72
2022/06/01 15:01:05;;;;;;;4.40;1.17;;;23.90;90.60;;;;;;4991998;28;20809;-72
2022/06/01 15:03:34;;;;;;;3.10;1.70;;;23.90;90.50;;;;;;4992074;28;20425;-72
2022/06/01 15:06:00;;;;;;;1.67;1.23;;;23.90;90.70;;;;;;4992265;28;20925;-71
2022/06/01 15:08:26;;;;;;;3.80;1.10;;;23.80;90.50;;;;;;4992124;28;20802;-72
2022/06/01 15:10:52;;;;;;;1.53;1.43;;;23.80;90.50;;;;;;4978228;28;20490;-72